createdAt,value
2023-01-12T00:01:58.127Z,-10.37
2023-01-12T00:04:25.568Z,-10.40
2023-01-12T00:06:52.824Z,-10.47
2023-01-12T00:09:20.224Z,-10.50
2023-01-12T00:11:47.508Z,-10.56
2023-01-12T00:14:15.359Z,-10.60
2023-01-12T00:16:42.523Z,-10.66
2023-01-12T00:19:17.950Z,-10.67
2023-01-12T00:22:00.483Z,-10.77
2023-01-12T00:24:27.327Z,-10.82
2023-01-12T00:26:55.125Z,-10.93
2023-01-12T00:29:23.149Z,-10.96
2023-01-12T00:31:50.280Z,-11.01
2023-01-12T00:34:17.581Z,-11.03
2023-01-12T00:36:46.706Z,-11.05
2023-01-12T00:39:15.093Z,-11.06
2023-01-12T00:42:01.398Z,-11.04
2023-01-12T00:44:47.712Z,-11.04
2023-01-12T00:47:15.503Z,-11.00
2023-01-12T00:49:50.904Z,-11.00
2023-01-12T00:52:35.734Z,-10.93
2023-01-12T00:55:02.962Z,-10.89
2023-01-12T00:57:30.116Z,-10.88
2023-01-12T00:59:59.490Z,-10.88
2023-01-12T01:02:27.885Z,-10.88
2023-01-12T01:04:55.373Z,-10.87
2023-01-12T01:07:23.051Z,-10.86
2023-01-12T01:09:51.094Z,-10.83
2023-01-12T01:12:18.599Z,-10.76
2023-01-12T01:14:47.823Z,-10.67
2023-01-12T01:17:15.132Z,-10.58
2023-01-12T01:19:43.699Z,-10.41
2023-01-12T01:22:12.729Z,-10.29
2023-01-12T01:24:40.382Z,-10.16
2023-01-12T01:27:07.704Z,-10.05
2023-01-12T01:29:34.832Z,-9.97
2023-01-12T01:32:01.785Z,-9.89
2023-01-12T01:34:29.044Z,-9.81
2023-01-12T01:36:56.161Z,-9.75
2023-01-12T01:39:23.357Z,-9.65
2023-01-12T01:41:50.779Z,-9.55
2023-01-12T01:44:30.093Z,-9.47
2023-01-12T01:46:59.862Z,-9.39
2023-01-12T01:49:29.906Z,-9.35
2023-01-12T01:52:03.867Z,-9.23
2023-01-12T01:54:37.130Z,-9.16
2023-01-12T01:57:05.647Z,-9.07
2023-01-12T01:59:36.403Z,-9.01
2023-01-12T02:02:04.684Z,-8.90
2023-01-12T02:04:32.317Z,-8.81
2023-01-12T02:07:01.794Z,-8.72
2023-01-12T02:09:31.058Z,-8.63
2023-01-12T02:12:17.038Z,-8.62
2023-01-12T02:15:05.599Z,-8.47
2023-01-12T02:17:56.628Z,-8.37
2023-01-12T02:20:35.921Z,-8.36
2023-01-12T02:23:09.162Z,-8.19
2023-01-12T02:26:08.037Z,-8.16
2023-01-12T02:29:13.082Z,-8.06
2023-01-12T02:31:54.401Z,-8.01
2023-01-12T02:34:46.077Z,-7.93
2023-01-12T02:37:42.957Z,-7.91
2023-01-12T02:40:28.100Z,-7.86
2023-01-12T02:43:15.138Z,-7.85
2023-01-12T02:45:50.536Z,-7.83
2023-01-12T02:48:24.636Z,-7.85
2023-01-12T02:50:55.825Z,-7.87
2023-01-12T02:53:38.993Z,-7.78
2023-01-12T02:56:08.449Z,-7.81
2023-01-12T02:58:40.660Z,-7.85
2023-01-12T03:01:10.907Z,-7.83
2023-01-12T03:03:39.952Z,-7.85
2023-01-12T03:06:08.566Z,-7.80
2023-01-12T03:08:38.989Z,-7.78
2023-01-12T03:11:13.927Z,-7.69
2023-01-12T03:13:47.301Z,-7.70
2023-01-12T03:16:19.402Z,-7.68
2023-01-12T03:18:51.680Z,-7.64
2023-01-12T03:21:32.859Z,-7.61
2023-01-12T03:24:05.181Z,-7.59
2023-01-12T03:26:36.519Z,-7.59
2023-01-12T03:29:20.188Z,-7.55
2023-01-12T03:31:47.529Z,-7.51
2023-01-12T03:34:14.979Z,-7.49
2023-01-12T03:37:08.956Z,-7.43
2023-01-12T03:39:54.839Z,-7.42
2023-01-12T03:42:32.062Z,-7.34
2023-01-12T03:45:20.743Z,-7.28
2023-01-12T03:47:56.729Z,-7.22
2023-01-12T03:50:34.335Z,-7.28
2023-01-12T03:53:03.984Z,-7.18
2023-01-12T03:55:34.623Z,-7.10
2023-01-12T03:58:08.862Z,-7.06
2023-01-12T04:00:57.197Z,-7.01
2023-01-12T04:03:25.014Z,-6.94
2023-01-12T04:05:52.128Z,-6.85
2023-01-12T04:08:19.725Z,-6.78
2023-01-12T04:10:47.071Z,-6.79
2023-01-12T04:13:14.218Z,-6.69
2023-01-12T04:15:44.236Z,-6.67
2023-01-12T04:18:12.772Z,-6.65
2023-01-12T04:20:40.981Z,-6.62
2023-01-12T04:23:08.893Z,-6.65
2023-01-12T04:25:36.617Z,-6.67
2023-01-12T04:28:04.771Z,-6.59
2023-01-12T04:30:33.615Z,-6.62
2023-01-12T04:33:08.588Z,-6.64
2023-01-12T04:35:36.490Z,-6.55
2023-01-12T04:38:08.746Z,-6.53
2023-01-12T04:40:35.714Z,-6.51
2023-01-12T04:43:07.920Z,-6.52
2023-01-12T04:45:37.273Z,-6.45
2023-01-12T04:48:09.817Z,-6.54
2023-01-12T04:50:39.496Z,-6.47
2023-01-12T04:53:09.749Z,-6.47
2023-01-12T04:55:38.922Z,-6.38
2023-01-12T04:58:07.789Z,-6.38
2023-01-12T05:00:35.857Z,-6.43
2023-01-12T05:03:04.283Z,-6.36
2023-01-12T05:05:33.618Z,-6.33
2023-01-12T05:08:22.341Z,-6.26
2023-01-12T05:10:51.110Z,-6.27
2023-01-12T05:13:19.152Z,-6.20
2023-01-12T05:15:46.288Z,-6.22
2023-01-12T05:18:13.519Z,-6.15
2023-01-12T05:20:40.583Z,-6.13
2023-01-12T05:23:07.816Z,-6.14
2023-01-12T05:25:34.797Z,-6.17
2023-01-12T05:28:03.683Z,-6.10
2023-01-12T05:30:32.942Z,-6.10
2023-01-12T05:33:01.970Z,-6.05
2023-01-12T05:35:30.442Z,-6.05
2023-01-12T05:37:59.043Z,-5.99
2023-01-12T05:40:27.500Z,-5.96
2023-01-12T05:43:15.282Z,-5.93
2023-01-12T05:45:46.567Z,-5.95
2023-01-12T05:48:15.076Z,-5.87
2023-01-12T05:50:43.587Z,-5.83
2023-01-12T05:53:12.229Z,-5.80
2023-01-12T05:55:40.689Z,-5.76
2023-01-12T05:58:09.299Z,-5.77
2023-01-12T06:00:38.423Z,-5.76
2023-01-12T06:03:07.130Z,-5.66
2023-01-12T06:05:36.504Z,-5.67
2023-01-12T06:08:05.759Z,-5.60
2023-01-12T06:10:34.813Z,-5.63
2023-01-12T06:13:22.780Z,-5.55
2023-01-12T06:15:54.009Z,-5.57
2023-01-12T06:18:25.745Z,-5.53
2023-01-12T06:20:54.847Z,-5.54
2023-01-12T06:23:23.056Z,-5.49
2023-01-12T06:26:06.133Z,-5.38
2023-01-12T06:28:34.939Z,-5.37
2023-01-12T06:31:05.306Z,-5.33
2023-01-12T06:33:34.092Z,-5.24
2023-01-12T06:36:03.064Z,-5.31
2023-01-12T06:38:33.471Z,-5.24
2023-01-12T06:41:33.999Z,-5.23
2023-01-12T06:44:02.964Z,-5.25
2023-01-12T06:46:31.612Z,-5.21
2023-01-12T06:49:00.838Z,-5.19
2023-01-12T06:51:28.715Z,-5.20
2023-01-12T06:53:56.292Z,-5.28
2023-01-12T06:56:24.214Z,-5.32
2023-01-12T06:58:52.940Z,-5.19
2023-01-12T07:01:23.737Z,-5.23
2023-01-12T07:03:52.554Z,-5.18
2023-01-12T07:06:22.660Z,-5.12
2023-01-12T07:08:51.103Z,-5.16
2023-01-12T07:11:20.645Z,-4.96
2023-01-12T07:13:49.139Z,-4.94
2023-01-12T07:16:18.586Z,-4.85
2023-01-12T07:18:49.841Z,-4.80
2023-01-12T07:21:23.644Z,-4.89
2023-01-12T07:23:52.675Z,-4.82
2023-01-12T07:26:21.612Z,-4.70
2023-01-12T07:28:49.709Z,-4.60
2023-01-12T07:31:20.114Z,-4.50
2023-01-12T07:33:49.263Z,-4.52
2023-01-12T07:36:18.391Z,-4.39
2023-01-12T07:38:46.367Z,-4.36
2023-01-12T07:41:33.289Z,-4.32
2023-01-12T07:44:10.151Z,-4.16
2023-01-12T07:46:39.946Z,-4.02
2023-01-12T07:49:08.994Z,-4.03
2023-01-12T07:51:41.930Z,-3.98
2023-01-12T07:54:11.351Z,-3.82
2023-01-12T07:56:39.357Z,-3.81
2023-01-12T07:59:07.843Z,-3.71
2023-01-12T08:01:37.001Z,-3.45
2023-01-12T08:04:05.780Z,-3.42
2023-01-12T08:06:39.004Z,-3.22
2023-01-12T08:09:07.061Z,-3.16
2023-01-12T08:11:41.347Z,-3.09
2023-01-12T08:14:09.731Z,-2.86
2023-01-12T08:16:44.297Z,-2.80
2023-01-12T08:19:24.767Z,-2.74
2023-01-12T08:21:59.408Z,-2.71
2023-01-12T08:24:33.395Z,-2.51
2023-01-12T08:27:05.291Z,-2.31
2023-01-12T08:29:46.200Z,-2.25
2023-01-12T08:32:19.392Z,-2.14
2023-01-12T08:34:52.260Z,-2.08
2023-01-12T08:37:23.840Z,-2.05
2023-01-12T08:39:54.006Z,-1.95
2023-01-12T08:42:26.427Z,-1.80
2023-01-12T08:44:56.382Z,-1.73
2023-01-12T08:47:32.093Z,-1.66
2023-01-12T08:50:00.962Z,-1.52
2023-01-12T08:52:37.933Z,-1.32
2023-01-12T08:55:12.331Z,-1.14
2023-01-12T08:57:42.025Z,-1.18
2023-01-12T09:00:11.097Z,-1.22
2023-01-12T09:02:39.828Z,-1.27
2023-01-12T09:05:08.632Z,-1.33
2023-01-12T09:07:39.187Z,-1.35
2023-01-12T09:10:09.443Z,-1.24
2023-01-12T09:12:38.165Z,-1.19
2023-01-12T09:15:07.710Z,-1.18
2023-01-12T09:17:37.534Z,-1.33
2023-01-12T09:20:05.866Z,-1.43
2023-01-12T09:22:34.287Z,-1.50
2023-01-12T09:25:02.818Z,-1.70
2023-01-12T09:27:30.746Z,-1.68
2023-01-12T09:29:59.640Z,-1.70
2023-01-12T09:32:36.152Z,-1.70
2023-01-12T09:35:05.760Z,-1.47
2023-01-12T09:37:34.423Z,-1.29
2023-01-12T09:40:05.841Z,-1.06
2023-01-12T09:42:54.837Z,-0.92
2023-01-12T09:45:42.365Z,-0.76
2023-01-12T09:48:13.492Z,-0.66
2023-01-12T09:51:08.158Z,-0.42
2023-01-12T09:53:38.904Z,-0.73
2023-01-12T09:56:12.941Z,-0.78
2023-01-12T09:59:18.289Z,-0.76
2023-01-12T10:01:47.000Z,-1.07
2023-01-12T10:04:16.661Z,-1.15
2023-01-12T10:06:44.567Z,-1.43
2023-01-12T10:09:17.061Z,-1.39
2023-01-12T10:11:52.216Z,-1.57
2023-01-12T10:14:47.931Z,-1.46
2023-01-12T10:17:25.948Z,-1.59
2023-01-12T10:20:09.180Z,-1.69
2023-01-12T10:22:55.913Z,-1.65
2023-01-12T10:25:33.828Z,-1.67
2023-01-12T10:28:15.923Z,-1.71
2023-01-12T10:30:44.964Z,-1.62
2023-01-12T10:33:24.099Z,-1.63
2023-01-12T10:35:59.619Z,-1.97
2023-01-12T10:38:49.917Z,-1.90
2023-01-12T10:41:23.025Z,-2.11
2023-01-12T10:43:56.489Z,-2.12
2023-01-12T10:46:27.943Z,-2.06
2023-01-12T10:49:15.933Z,-1.91
2023-01-12T10:51:57.095Z,-1.59
2023-01-12T10:54:28.390Z,-1.48
2023-01-12T10:57:00.133Z,-1.28
2023-01-12T10:59:38.838Z,-1.02
2023-01-12T11:02:09.537Z,-0.93
2023-01-12T11:04:49.755Z,-0.80
2023-01-12T11:07:31.796Z,-1.15
2023-01-12T11:10:37.796Z,-1.13
2023-01-12T11:13:07.679Z,-1.32
2023-01-12T11:15:39.292Z,-1.12
2023-01-12T11:18:33.499Z,-1.26
2023-01-12T11:21:06.721Z,-1.27
2023-01-12T11:23:58.633Z,-1.43
2023-01-12T11:26:58.999Z,-1.33
2023-01-12T11:29:45.422Z,-1.28
2023-01-12T11:32:21.661Z,-1.14
2023-01-12T11:35:19.813Z,-1.07
2023-01-12T11:37:50.206Z,-0.97
2023-01-12T11:40:32.247Z,-0.82
2023-01-12T11:43:44.383Z,-0.78
2023-01-12T11:46:22.623Z,-0.66
2023-01-12T11:49:28.149Z,-0.64
2023-01-12T11:51:59.165Z,-0.71
2023-01-12T11:54:29.487Z,-0.84
2023-01-12T11:57:23.692Z,-0.83
2023-01-12T12:00:13.321Z,-0.87
2023-01-12T12:03:08.506Z,-1.03
2023-01-12T12:05:45.948Z,-1.31
2023-01-12T12:08:52.881Z,-1.74
2023-01-12T12:11:45.892Z,-1.73
2023-01-12T12:14:34.347Z,-1.53
2023-01-12T12:17:13.680Z,-1.49
2023-01-12T12:20:08.675Z,-1.35
2023-01-12T12:22:42.677Z,-1.40
2023-01-12T12:25:37.717Z,-1.41
2023-01-12T12:28:48.583Z,-1.63
2023-01-12T12:31:24.718Z,-1.99
2023-01-12T12:34:05.818Z,-1.82
2023-01-12T12:36:34.006Z,-1.98
2023-01-12T12:39:33.512Z,-1.83
2023-01-12T12:42:39.794Z,-1.69
2023-01-12T12:45:19.001Z,-1.62
2023-01-12T12:48:14.944Z,-1.59
2023-01-12T12:51:12.562Z,-1.48
2023-01-12T12:53:44.198Z,-1.46
2023-01-12T12:56:17.590Z,-1.54
2023-01-12T12:58:51.635Z,-1.48
2023-01-12T13:01:24.426Z,-1.52
2023-01-12T13:03:58.936Z,-1.52
2023-01-12T13:06:29.748Z,-1.61
2023-01-12T13:09:25.505Z,-1.67
2023-01-12T13:12:00.700Z,-1.60
2023-01-12T13:14:31.437Z,-1.56
2023-01-12T13:17:20.526Z,-1.56
2023-01-12T13:20:04.421Z,-1.62
2023-01-12T13:22:53.330Z,-1.71
2023-01-12T13:25:20.954Z,-1.87
2023-01-12T13:28:01.240Z,-1.84
2023-01-12T13:30:32.236Z,-1.87
2023-01-12T13:33:15.591Z,-1.90
2023-01-12T13:35:49.103Z,-2.07
2023-01-12T13:38:44.578Z,-2.03
2023-01-12T13:41:15.562Z,-2.18
2023-01-12T13:43:58.430Z,-2.11
2023-01-12T13:46:46.024Z,-2.12
2023-01-12T13:49:33.893Z,-2.21
2023-01-12T13:52:29.398Z,-2.38
2023-01-12T13:54:57.347Z,-2.45
2023-01-12T13:57:28.366Z,-2.38
2023-01-12T14:00:22.575Z,-2.44
2023-01-12T14:02:53.717Z,-2.41
2023-01-12T14:06:00.090Z,-2.47
2023-01-12T14:08:51.240Z,-2.46
2023-01-12T14:11:35.154Z,-2.51
2023-01-12T14:14:47.690Z,-2.59
2023-01-12T14:17:45.460Z,-2.63
2023-01-12T14:20:19.395Z,-2.63
2023-01-12T14:22:48.474Z,-2.74
2023-01-12T14:25:27.396Z,-2.77
2023-01-12T14:27:58.316Z,-2.77
2023-01-12T14:30:28.514Z,-2.85
2023-01-12T14:32:56.634Z,-2.89
2023-01-12T14:35:27.433Z,-2.85
2023-01-12T14:38:00.782Z,-2.90
2023-01-12T14:40:34.124Z,-3.02
2023-01-12T14:43:21.854Z,-2.96
2023-01-12T14:46:19.687Z,-2.93
2023-01-12T14:49:17.657Z,-2.94
2023-01-12T14:51:53.796Z,-2.98
2023-01-12T14:54:29.559Z,-3.04
2023-01-12T14:57:18.629Z,-2.93
2023-01-12T14:59:48.442Z,-2.97
2023-01-12T15:02:15.840Z,-2.95
2023-01-12T15:05:10.739Z,-2.97
2023-01-12T15:07:52.887Z,-2.97
2023-01-12T15:10:20.281Z,-2.93
2023-01-12T15:12:50.620Z,-3.01
2023-01-12T15:15:25.762Z,-2.95
2023-01-12T15:18:13.564Z,-3.04
2023-01-12T15:21:03.370Z,-2.97
2023-01-12T15:23:51.325Z,-3.09
2023-01-12T15:26:19.323Z,-3.08
2023-01-12T15:28:47.764Z,-3.13
2023-01-12T15:31:34.868Z,-3.11
2023-01-12T15:34:02.719Z,-3.09
2023-01-12T15:36:29.997Z,-3.07
2023-01-12T15:38:57.487Z,-3.05
2023-01-12T15:41:46.065Z,-3.05
2023-01-12T15:44:19.145Z,-3.07
2023-01-12T15:46:46.382Z,-3.05
2023-01-12T15:49:14.477Z,-3.06
2023-01-12T15:51:44.253Z,-3.12
2023-01-12T15:54:13.782Z,-3.02
2023-01-12T15:56:41.214Z,-3.07
2023-01-12T15:59:08.297Z,-3.06
2023-01-12T16:01:42.785Z,-3.01
2023-01-12T16:07:06.604Z,-3.09
2023-01-12T16:09:33.774Z,-3.11
2023-01-12T16:12:01.056Z,-3.07
2023-01-12T16:14:28.196Z,-3.13
2023-01-12T16:16:56.875Z,-3.08
2023-01-12T16:19:24.332Z,-3.11
2023-01-12T16:21:55.354Z,-3.08
2023-01-12T16:24:26.969Z,-3.11
2023-01-12T16:26:54.685Z,-3.09
2023-01-12T16:29:23.798Z,-3.03
2023-01-12T16:31:51.650Z,-3.10
2023-01-12T16:34:23.196Z,-3.05
2023-01-12T16:36:50.673Z,-3.13
2023-01-12T16:39:17.785Z,-3.08
2023-01-12T16:41:44.841Z,-3.05
2023-01-12T16:44:12.237Z,-3.00
2023-01-12T16:46:39.393Z,-3.00
2023-01-12T16:49:06.567Z,-2.99
2023-01-12T16:51:34.895Z,-3.07
2023-01-12T16:54:02.915Z,-2.99
2023-01-12T16:56:30.266Z,-3.03
2023-01-12T16:58:58.134Z,-3.01
2023-01-12T17:01:26.641Z,-3.08
2023-01-12T17:03:58.067Z,-3.08
2023-01-12T17:06:27.782Z,-3.07
2023-01-12T17:08:55.716Z,-2.98
2023-01-12T17:11:24.577Z,-2.99
2023-01-12T17:13:54.514Z,-2.99
2023-01-12T17:16:23.743Z,-2.93
2023-01-12T17:18:51.120Z,-3.01
2023-01-12T17:21:19.889Z,-3.09
2023-01-12T17:23:47.997Z,-3.11
2023-01-12T17:26:17.998Z,-3.11
2023-01-12T17:28:46.924Z,-3.22
2023-01-12T17:31:16.518Z,-3.16
2023-01-12T17:33:43.615Z,-3.13
2023-01-12T17:36:12.676Z,-3.16
2023-01-12T17:38:40.400Z,-3.18
2023-01-12T17:41:32.826Z,-3.26
2023-01-12T17:44:02.384Z,-3.16
2023-01-12T17:46:30.596Z,-3.22
2023-01-12T17:48:59.520Z,-3.20
2023-01-12T17:51:26.883Z,-3.18
2023-01-12T17:53:58.475Z,-3.11
2023-01-12T17:56:29.904Z,-3.16
2023-01-12T17:58:57.588Z,-3.07
2023-01-12T18:01:26.579Z,-3.05
2023-01-12T18:03:53.952Z,-3.13
2023-01-12T18:06:28.401Z,-3.15
2023-01-12T18:08:57.073Z,-3.14
2023-01-12T18:11:24.242Z,-3.07
2023-01-12T18:13:51.764Z,-3.15
2023-01-12T18:16:19.383Z,-3.16
2023-01-12T18:18:46.798Z,-3.20
2023-01-12T18:21:16.176Z,-3.12
2023-01-12T18:23:43.780Z,-3.12
2023-01-12T18:26:14.843Z,-3.13
2023-01-12T18:28:42.564Z,-3.23
2023-01-12T18:31:13.626Z,-3.12
2023-01-12T18:33:41.446Z,-3.11
2023-01-12T18:36:11.591Z,-3.25
2023-01-12T18:38:42.285Z,-3.15
2023-01-12T18:41:28.926Z,-3.14
2023-01-12T18:43:58.677Z,-3.11
2023-01-12T18:46:44.615Z,-3.24
2023-01-12T18:49:11.863Z,-3.40
2023-01-12T18:51:57.150Z,-3.63
2023-01-12T18:54:24.493Z,-3.66
2023-01-12T18:56:51.991Z,-3.85
2023-01-12T18:59:19.223Z,-3.84
2023-01-12T19:01:46.410Z,-3.88
2023-01-12T19:04:15.905Z,-3.97
2023-01-12T19:06:47.766Z,-4.09
2023-01-12T19:09:33.664Z,-4.19
2023-01-12T19:12:02.199Z,-4.25
2023-01-12T19:15:07.659Z,-4.23
2023-01-12T19:17:35.122Z,-4.34
2023-01-12T19:20:06.654Z,-4.25
2023-01-12T19:22:52.960Z,-4.28
2023-01-12T19:25:41.881Z,-4.15
2023-01-12T19:28:32.952Z,-4.19
2023-01-12T19:31:02.296Z,-4.24
2023-01-12T19:33:30.250Z,-4.07
2023-01-12T19:35:57.522Z,-3.90
2023-01-12T19:38:24.821Z,-3.95
2023-01-12T19:40:54.370Z,-3.86
2023-01-12T19:43:30.045Z,-3.78
2023-01-12T19:45:59.340Z,-3.73
2023-01-12T19:48:27.356Z,-3.71
2023-01-12T19:50:55.074Z,-3.71
2023-01-12T19:53:28.361Z,-3.64
2023-01-12T19:55:55.795Z,-3.60
2023-01-12T19:58:23.602Z,-3.66
2023-01-12T20:00:51.333Z,-3.75
2023-01-12T20:03:21.056Z,-3.74
2023-01-12T20:05:51.080Z,-3.68
2023-01-12T20:08:24.480Z,-3.72
2023-01-12T20:10:56.743Z,-3.70
2023-01-12T20:13:24.030Z,-3.69
2023-01-12T20:15:51.786Z,-3.74
2023-01-12T20:18:19.435Z,-3.75
2023-01-12T20:20:47.120Z,-3.67
2023-01-12T20:23:15.645Z,-3.80
2023-01-12T20:25:45.014Z,-3.90
2023-01-12T20:28:15.148Z,-3.94
2023-01-12T20:30:43.299Z,-3.92
2023-01-12T20:33:11.898Z,-3.95
2023-01-12T20:35:45.416Z,-3.85
2023-01-12T20:38:15.930Z,-3.86
2023-01-12T20:40:45.124Z,-3.87
2023-01-12T20:43:12.837Z,-3.81
2023-01-12T20:45:42.121Z,-3.73
2023-01-12T20:48:12.522Z,-3.91
2023-01-12T20:50:45.876Z,-3.89
2023-01-12T20:53:15.842Z,-3.90
2023-01-12T20:55:49.434Z,-3.97
2023-01-12T20:58:17.254Z,-3.89
2023-01-12T21:00:44.692Z,-4.03
2023-01-12T21:03:11.950Z,-4.08
2023-01-12T21:05:43.522Z,-4.00
2023-01-12T21:08:11.167Z,-3.89
2023-01-12T21:10:39.779Z,-3.83
2023-01-12T21:13:10.628Z,-3.90
2023-01-12T21:15:41.345Z,-3.85
2023-01-12T21:18:09.669Z,-3.79
2023-01-12T21:20:40.485Z,-3.76
2023-01-12T21:23:07.554Z,-3.72
2023-01-12T21:25:34.868Z,-3.75
2023-01-12T21:28:02.309Z,-3.78
2023-01-12T21:30:29.472Z,-3.85
2023-01-12T21:32:57.251Z,-3.83
2023-01-12T21:35:25.678Z,-3.87
2023-01-12T21:37:53.039Z,-4.15
2023-01-12T21:40:20.941Z,-4.13
2023-01-12T21:43:06.880Z,-4.34
2023-01-12T21:45:41.728Z,-4.19
2023-01-12T21:48:10.684Z,-4.25
2023-01-12T21:50:37.972Z,-4.21
2023-01-12T21:53:06.949Z,-4.25
2023-01-12T21:55:34.663Z,-4.29
2023-01-12T21:58:02.969Z,-4.25
2023-01-12T22:00:30.759Z,-4.19
2023-01-12T22:02:57.994Z,-4.15
2023-01-12T22:05:25.825Z,-4.07
2023-01-12T22:07:55.473Z,-4.07
2023-01-12T22:10:24.533Z,-4.06
2023-01-12T22:12:55.228Z,-4.03
2023-01-12T22:15:23.752Z,-4.05
2023-01-12T22:17:54.356Z,-4.07
2023-01-12T22:20:22.648Z,-4.11
2023-01-12T22:22:50.322Z,-4.11
2023-01-12T22:25:18.148Z,-4.07
2023-01-12T22:27:45.692Z,-4.10
2023-01-12T22:30:20.052Z,-4.16
2023-01-12T22:32:47.783Z,-4.20
2023-01-12T22:35:15.247Z,-4.18
2023-01-12T22:37:42.527Z,-4.17
2023-01-12T22:40:11.743Z,-4.21
2023-01-12T22:42:57.947Z,-4.18
2023-01-12T22:45:25.368Z,-4.30
2023-01-12T22:47:54.091Z,-4.21
2023-01-12T22:50:22.117Z,-4.29
2023-01-12T22:52:50.959Z,-4.29
2023-01-12T22:55:18.400Z,-4.32
2023-01-12T22:57:45.666Z,-4.37
2023-01-12T23:00:13.822Z,-4.36
2023-01-12T23:02:59.626Z,-4.60
2023-01-12T23:05:36.533Z,-4.64
2023-01-12T23:08:07.280Z,-4.55
2023-01-12T23:10:35.299Z,-4.48
2023-01-12T23:13:11.875Z,-4.44
2023-01-12T23:15:44.583Z,-4.36
2023-01-12T23:18:14.180Z,-4.30
2023-01-12T23:20:42.785Z,-4.42
2023-01-12T23:23:10.927Z,-4.31
2023-01-12T23:25:38.859Z,-4.33
2023-01-12T23:28:07.673Z,-4.19
2023-01-12T23:30:34.928Z,-4.15
2023-01-12T23:33:06.329Z,-4.18
2023-01-12T23:35:41.997Z,-4.14
2023-01-12T23:38:14.935Z,-4.23
2023-01-12T23:40:42.210Z,-4.31
2023-01-12T23:43:09.508Z,-4.33
2023-01-12T23:45:36.753Z,-4.39
2023-01-12T23:48:06.954Z,-4.31
2023-01-12T23:50:34.073Z,-4.29
2023-01-12T23:53:01.255Z,-4.44
2023-01-12T23:55:30.067Z,-4.48
2023-01-12T23:57:57.443Z,-4.51
